Time;durP1;ratioP1;P1;durP2;ratioP2;P2;SDS_P1;SDS_P2;PMS_P1;PMS_P2;Temp;Humidity;BMP_temperature;BMP_pressure;BME280_temperature;BME280_humidity;BME280_pressure;Samples;Min_cycle;Max_cycle;Signal;HPM_P1;HPM_P2
2022/07/28 00:00:12;;;;;;;5.78;4.28;;;;;;;19.36;59.45;92733.63;2071460;69;20152;-76
2022/07/28 00:02:37;;;;;;;7.93;4.20;;;;;;;19.30;59.19;92726.34;2071307;69;20564;-74
2022/07/28 00:05:05;;;;;;;5.30;4.20;;;;;;;19.29;59.04;92719.19;2071349;69;20144;-75
2022/07/28 00:07:31;;;;;;;6.40;4.35;;;;;;;19.43;59.61;92724.56;2071306;69;20172;-74
2022/07/28 00:09:57;;;;;;;7.68;4.40;;;;;;;19.43;59.20;92718.13;2067952;69;20597;-74
2022/07/28 00:12:22;;;;;;;6.65;3.83;;;;;;;19.25;60.13;92713.34;2067340;69;20232;-75
2022/07/28 00:14:48;;;;;;;5.88;3.78;;;;;;;19.24;60.19;92719.72;2067522;69;20136;-75
2022/07/28 00:17:13;;;;;;;5.75;3.75;;;;;;;19.22;60.97;92725.38;2067987;69;20690;-74
2022/07/28 00:19:39;;;;;;;4.55;3.85;;;;;;;19.26;60.21;92725.50;2064642;69;20180;-74
2022/07/28 00:22:06;;;;;;;8.43;4.20;;;;;;;19.26;60.18;92723.38;2067721;69;20306;-74
2022/07/28 00:24:33;;;;;;;7.95;3.88;;;;;;;19.22;60.42;92726.09;2067432;69;20272;-76
2022/07/28 00:26:59;;;;;;;6.38;4.10;;;;;;;19.14;59.56;92722.28;2067124;69;20250;-75
2022/07/28 00:29:25;;;;;;;10.30;4.10;;;;;;;19.18;60.26;92706.00;2067253;69;20687;-74
2022/07/28 00:31:51;;;;;;;8.68;3.75;;;;;;;19.13;60.78;92712.25;2067675;69;20292;-75
2022/07/28 00:34:17;;;;;;;6.18;4.38;;;;;;;18.92;61.45;92703.13;2067819;69;20487;-75
2022/07/28 00:36:42;;;;;;;5.85;3.70;;;;;;;18.82;62.06;92704.91;2067881;69;20519;-73
2022/07/28 00:39:08;;;;;;;5.70;3.83;;;;;;;19.09;60.35;92700.72;2067635;69;20611;-74
2022/07/28 00:41:35;;;;;;;6.18;3.55;;;;;;;18.99;60.89;92699.03;2067626;69;20249;-74
2022/07/28 00:44:01;;;;;;;5.30;4.00;;;;;;;18.92;61.51;92700.25;2067527;69;20156;-74
2022/07/28 00:46:26;;;;;;;8.48;3.78;;;;;;;18.90;61.66;92691.63;2067219;69;20156;-74
2022/07/28 00:48:53;;;;;;;5.47;3.90;;;;;;;18.73;62.46;92687.56;2067700;69;20160;-74
2022/07/28 00:51:21;;;;;;;4.13;3.58;;;;;;;18.83;61.00;92686.41;2067202;69;20168;-75
2022/07/28 00:53:47;;;;;;;4.95;3.75;;;;;;;18.73;62.35;92683.97;2066936;69;20211;-74
2022/07/28 00:56:13;;;;;;;7.50;4.10;;;;;;;18.76;61.38;92683.38;2067790;69;20147;-75
2022/07/28 00:58:39;;;;;;;4.80;4.30;;;;;;;18.64;62.14;92680.13;2067755;69;20156;-74
2022/07/28 01:01:10;;;;;;;6.13;4.05;;;;;;;18.77;61.35;92684.81;2067571;69;20194;-75
2022/07/28 01:03:39;;;;;;;7.50;4.22;;;;;;;18.72;62.05;92679.69;2067408;69;20148;-75
2022/07/28 01:06:13;;;;;;;7.50;4.15;;;;;;;18.76;61.88;92677.69;2066929;69;20636;-74
2022/07/28 01:08:47;;;;;;;7.57;4.10;;;;;;;18.75;61.78;92675.50;2066934;69;20232;-76
2022/07/28 01:11:20;;;;;;;9.80;4.35;;;;;;;18.53;62.72;92676.25;2067810;69;20259;-74
2022/07/28 01:13:58;;;;;;;5.50;4.10;;;;;;;18.74;61.55;92676.91;2071227;69;20613;-75
2022/07/28 01:16:26;;;;;;;7.75;4.40;;;;;;;18.83;59.78;92681.44;2070769;69;20148;-74
2022/07/28 01:19:08;;;;;;;7.25;4.25;;;;;;;18.72;60.83;92674.69;2070601;69;20150;-75
2022/07/28 01:21:36;;;;;;;5.82;4.00;;;;;;;18.79;60.16;92673.50;2070649;69;20141;-76
2022/07/28 01:24:41;;;;;;;6.15;4.10;;;;;;;18.20;62.60;92671.66;2070808;69;20159;-75
2022/07/28 01:27:28;;;;;;;6.50;4.03;;;;;;;18.35;62.51;92672.09;2061804;69;20294;-75
2022/07/28 01:30:06;;;;;;;6.72;4.30;;;;;;;18.39;62.73;92678.66;2070732;69;20152;-74
2022/07/28 01:32:49;;;;;;;6.30;4.55;;;;;;;18.48;61.92;92674.66;2067370;69;20151;-74
2022/07/28 01:35:22;;;;;;;8.90;4.00;;;;;;;18.62;60.64;92688.63;2067585;69;20235;-75
2022/07/28 01:37:52;;;;;;;6.13;4.35;;;;;;;18.48;60.49;92685.34;2070901;69;20295;-76
2022/07/28 01:40:23;;;;;;;7.30;4.25;;;;;;;18.56;60.16;92684.88;2070902;69;20193;-75
2022/07/28 01:42:53;;;;;;;8.55;4.00;;;;;;;18.48;60.64;92686.06;2071133;69;20159;-73
2022/07/28 01:45:20;;;;;;;4.75;3.88;;;;;;;18.50;60.64;92682.53;2067807;69;20174;-75
2022/07/28 01:47:48;;;;;;;6.60;4.18;;;;;;;18.49;60.87;92678.97;2067196;69;20245;-75
2022/07/28 01:50:17;;;;;;;7.93;4.25;;;;;;;18.57;60.14;92674.91;2070914;69;20475;-75
2022/07/28 01:52:46;;;;;;;5.43;4.15;;;;;;;18.28;60.83;92674.75;2070803;69;20195;-75
2022/07/28 01:55:13;;;;;;;6.03;3.85;;;;;;;18.46;61.24;92673.84;2070499;69;20144;-73
2022/07/28 01:57:41;;;;;;;8.27;4.78;;;;;;;18.46;60.94;92662.47;2070656;69;20152;-75
2022/07/28 02:00:12;;;;;;;7.57;4.57;;;;;;;18.31;61.86;92666.25;2067151;69;20176;-75
2022/07/28 02:02:42;;;;;;;6.15;3.50;;;;;;;18.29;61.27;92666.94;2071032;69;20544;-75
2022/07/28 02:05:11;;;;;;;6.57;4.18;;;;;;;18.16;61.74;92674.38;2067456;69;20148;-74
2022/07/28 02:07:38;;;;;;;8.30;4.22;;;;;;;18.22;62.89;92663.16;2071072;69;20191;-73
2022/07/28 02:10:05;;;;;;;7.68;4.43;;;;;;;18.28;62.13;92665.50;2071291;69;20148;-73
2022/07/28 02:12:34;;;;;;;6.68;3.95;;;;;;;18.22;62.08;92666.00;2071157;69;20182;-75
2022/07/28 02:15:01;;;;;;;7.82;4.72;;;;;;;18.12;61.98;92668.53;2067591;69;20236;-75
2022/07/28 02:17:30;;;;;;;5.35;4.60;;;;;;;18.19;62.06;92660.91;2070914;69;20172;-76
2022/07/28 02:19:57;;;;;;;6.75;4.30;;;;;;;18.09;62.33;92663.44;2067544;69;20237;-75
2022/07/28 02:22:25;;;;;;;5.05;4.35;;;;;;;18.19;61.82;92663.75;2067591;69;20208;-74
2022/07/28 02:24:52;;;;;;;9.23;4.25;;;;;;;18.13;62.16;92660.72;2067854;69;20546;-74
2022/07/28 02:27:39;;;;;;;6.72;4.75;;;;;;;18.18;62.05;92663.03;2064966;69;20631;-74
2022/07/28 02:30:15;;;;;;;5.93;4.20;;;;;;;17.99;62.77;92658.84;2071030;69;20588;-74
2022/07/28 02:32:50;;;;;;;8.10;4.00;;;;;;;17.86;63.50;92659.84;2067526;69;20178;-75
2022/07/28 02:35:24;;;;;;;6.05;4.20;;;;;;;17.89;63.64;92649.25;2071077;69;20233;-73
2022/07/28 02:37:58;;;;;;;7.55;4.57;;;;;;;17.83;63.15;92658.34;2067617;69;20168;-73
2022/07/28 02:40:29;;;;;;;7.55;4.32;;;;;;;17.98;62.99;92656.69;2071002;69;20203;-73
2022/07/28 02:42:57;;;;;;;6.75;4.35;;;;;;;17.94;63.38;92657.28;2070714;69;20532;-75
2022/07/28 02:45:25;;;;;;;6.13;4.40;;;;;;;17.95;61.78;92649.44;2070777;69;20267;-73
2022/07/28 02:47:59;;;;;;;7.15;4.35;;;;;;;17.76;64.18;92656.66;2070632;69;20225;-75
2022/07/28 02:50:27;;;;;;;6.65;4.25;;;;;;;17.77;63.14;92652.41;2070982;69;20167;-75
2022/07/28 02:52:58;;;;;;;7.82;4.88;;;;;;;17.82;63.81;92650.44;2070701;69;20144;-76
2022/07/28 02:55:25;;;;;;;6.30;5.03;;;;;;;17.72;64.31;92651.53;2070721;69;20175;-76
2022/07/28 02:57:52;;;;;;;9.60;4.97;;;;;;;17.67;64.29;92652.06;2070705;69;20175;-74
2022/07/28 03:00:18;;;;;;;6.75;4.13;;;;;;;17.76;63.60;92646.00;2067537;69;20527;-76
2022/07/28 03:02:47;;;;;;;8.65;4.68;;;;;;;17.69;64.36;92657.84;2070832;69;20172;-76
2022/07/28 03:05:14;;;;;;;5.72;4.40;;;;;;;17.53;65.01;92653.03;2067703;69;20144;-76
2022/07/28 03:07:41;;;;;;;10.00;4.80;;;;;;;17.45;65.95;92661.28;2070610;69;20163;-74
2022/07/28 03:10:08;;;;;;;5.63;4.63;;;;;;;17.60;64.34;92665.38;2071089;69;20282;-75
2022/07/28 03:12:35;;;;;;;7.15;4.70;;;;;;;17.59;64.94;92666.00;2071509;69;20157;-75
2022/07/28 03:15:00;;;;;;;6.63;4.47;;;;;;;17.56;64.88;92661.66;2071605;69;20145;-76
2022/07/28 03:17:26;;;;;;;7.45;4.50;;;;;;;17.08;65.91;92664.94;2071677;69;20175;-75
2022/07/28 03:19:52;;;;;;;8.40;5.20;;;;;;;16.84;67.16;92664.81;2071458;69;20176;-76
2022/07/28 03:22:17;;;;;;;5.65;4.38;;;;;;;17.32;64.46;92665.13;2071801;69;20292;-76
2022/07/28 03:24:52;;;;;;;6.63;4.65;;;;;;;17.39;64.49;92668.88;2071515;69;20160;-76
2022/07/28 03:27:25;;;;;;;6.05;4.60;;;;;;;17.27;65.50;92667.09;2071524;69;20219;-76
2022/07/28 03:30:07;;;;;;;6.85;4.63;;;;;;;17.37;64.51;92666.72;2071529;69;20137;-75
2022/07/28 03:32:36;;;;;;;6.50;5.15;;;;;;;17.25;65.03;92667.00;2071109;69;20163;-74
2022/07/28 03:35:02;;;;;;;7.32;4.97;;;;;;;17.21;65.23;92672.53;2068124;69;20318;-76
2022/07/28 03:37:34;;;;;;;4.95;4.40;;;;;;;17.28;65.08;92671.38;2071592;69;20151;-75
2022/07/28 03:40:01;;;;;;;7.50;4.70;;;;;;;17.12;65.53;92667.22;2071531;69;20132;-75
2022/07/28 03:42:28;;;;;;;7.40;4.65;;;;;;;17.26;65.25;92668.44;2068158;69;20141;-75
2022/07/28 03:44:54;;;;;;;8.07;4.65;;;;;;;17.23;65.35;92674.75;2068374;69;20245;-74
2022/07/28 03:47:22;;;;;;;9.07;5.13;;;;;;;17.21;65.48;92666.13;2071437;69;20147;-76
2022/07/28 03:49:49;;;;;;;8.35;4.72;;;;;;;17.27;64.41;92667.09;2065471;69;20164;-75
2022/07/28 03:52:15;;;;;;;9.25;5.15;;;;;;;16.94;65.98;92667.28;2071456;69;20144;-76
2022/07/28 03:54:41;;;;;;;9.40;4.55;;;;;;;17.24;64.01;92664.81;2071504;69;20309;-75
2022/07/28 03:57:06;;;;;;;7.75;4.72;;;;;;;17.03;66.21;92666.91;2071633;69;20148;-75
2022/07/28 03:59:32;;;;;;;9.02;4.35;;;;;;;17.23;65.13;92671.91;2068195;69;20145;-75
2022/07/28 04:01:58;;;;;;;7.20;4.40;;;;;;;17.25;63.84;92672.69;2068203;69;20209;-75
2022/07/28 04:04:24;;;;;;;6.57;4.40;;;;;;;17.22;64.66;92668.31;2071380;69;20172;-76
2022/07/28 04:06:50;;;;;;;5.95;4.40;;;;;;;17.14;64.79;92676.56;2071574;69;20247;-75
2022/07/28 04:09:15;;;;;;;6.55;4.70;;;;;;;17.20;64.98;92668.25;2071667;69;20145;-74
2022/07/28 04:11:42;;;;;;;7.20;4.95;;;;;;;16.76;66.70;92676.59;2071460;69;20155;-74
2022/07/28 04:14:07;;;;;;;9.35;5.13;;;;;;;16.78;66.69;92670.25;2071436;69;20144;-74
2022/07/28 04:16:34;;;;;;;6.57;4.63;;;;;;;17.01;65.29;92669.69;2071507;69;20260;-75
2022/07/28 04:19:00;;;;;;;6.68;4.90;;;;;;;16.52;67.94;92664.28;2071407;69;20147;-74
2022/07/28 04:21:26;;;;;;;7.97;4.50;;;;;;;17.01;65.25;92675.38;2071572;69;20160;-75
2022/07/28 04:23:51;;;;;;;7.63;4.75;;;;;;;16.91;66.35;92675.03;2071429;69;20227;-76
2022/07/28 04:26:17;;;;;;;6.20;4.93;;;;;;;17.01;65.51;92686.03;2071517;69;20146;-75
2022/07/28 04:28:45;;;;;;;7.13;4.70;;;;;;;16.94;65.18;92687.19;2071419;69;20151;-75
2022/07/28 04:31:11;;;;;;;8.30;4.50;;;;;;;17.05;64.63;92688.31;2071565;69;20653;-75
2022/07/28 04:33:37;;;;;;;6.60;5.15;;;;;;;16.91;65.43;92689.25;2071250;69;20224;-75
2022/07/28 04:36:03;;;;;;;8.38;5.50;;;;;;;16.62;66.76;92690.22;2068221;69;20179;-75
2022/07/28 04:38:30;;;;;;;5.80;4.85;;;;;;;16.62;67.24;92686.66;2071403;69;20151;-75
2022/07/28 04:40:56;;;;;;;8.35;5.28;;;;;;;16.97;65.79;92683.78;2071467;69;20247;-73
2022/07/28 04:43:22;;;;;;;8.65;4.65;;;;;;;17.12;65.47;92699.22;2065233;69;20272;-76
2022/07/28 04:45:49;;;;;;;6.28;4.80;;;;;;;17.17;65.63;92700.09;2071385;69;20177;-75
2022/07/28 04:48:16;;;;;;;8.55;5.05;;;;;;;17.12;66.39;92707.75;2071424;69;20254;-75
2022/07/28 04:50:44;;;;;;;8.25;4.70;;;;;;;17.19;64.64;92700.94;2071539;69;20524;-75
2022/07/28 04:53:11;;;;;;;11.13;5.28;;;;;;;17.46;63.78;92699.75;2071348;69;20608;-75
2022/07/28 04:55:38;;;;;;;8.23;5.38;;;;;;;17.07;66.58;92705.44;2068023;69;20171;-75
2022/07/28 04:58:04;;;;;;;7.97;4.82;;;;;;;17.21;64.24;92706.69;2071517;69;20177;-75
2022/07/28 05:00:30;;;;;;;9.80;5.40;;;;;;;16.94;66.63;92707.09;2071458;69;20156;-74
2022/07/28 05:02:57;;;;;;;10.30;5.93;;;;;;;17.03;66.14;92709.59;2071195;69;20167;-74
2022/07/28 05:05:24;;;;;;;9.82;5.18;;;;;;;17.07;66.51;92716.81;2071434;69;20500;-75
2022/07/28 05:07:50;;;;;;;8.40;5.03;;;;;;;17.03;66.67;92708.84;2071588;69;20140;-75
2022/07/28 05:10:16;;;;;;;7.32;5.10;;;;;;;17.08;66.81;92704.78;2071379;69;20175;-76
2022/07/28 05:12:44;;;;;;;7.13;5.18;;;;;;;17.23;66.06;92706.75;2071227;69;20616;-75
2022/07/28 05:15:10;;;;;;;8.15;5.53;;;;;;;17.09;67.37;92711.94;2071384;69;20152;-74
2022/07/28 05:17:38;;;;;;;8.95;5.60;;;;;;;17.39;65.33;92718.00;2067935;69;20202;-75
2022/07/28 05:20:05;;;;;;;8.27;4.90;;;;;;;17.29;63.81;92703.41;2071440;69;20580;-76
2022/07/28 05:22:44;;;;;;;6.97;5.20;;;;;;;17.61;63.44;92709.50;2071445;69;20210;-75
2022/07/28 05:25:17;;;;;;;7.53;5.22;;;;;;;17.25;66.45;92706.09;2071290;69;20163;-73
2022/07/28 05:27:47;;;;;;;6.85;5.30;;;;;;;17.52;65.26;92710.63;2071465;69;20180;-74
2022/07/28 05:30:14;;;;;;;7.03;5.38;;;;;;;17.57;63.71;92717.19;2071498;69;20140;-74
2022/07/28 05:32:40;;;;;;;7.28;5.68;;;;;;;17.40;65.59;92710.19;2071149;69;20144;-75
2022/07/28 05:35:06;;;;;;;10.23;6.50;;;;;;;17.13;66.58;92714.91;2071157;69;20160;-75
2022/07/28 05:37:34;;;;;;;10.98;5.82;;;;;;;17.38;65.19;92716.53;2071300;69;20148;-77
2022/07/28 05:40:00;;;;;;;9.82;5.35;;;;;;;17.53;65.74;92706.38;2071323;69;20609;-77
2022/07/28 05:42:27;;;;;;;8.02;4.80;;;;;;;17.52;65.90;92702.81;2068103;69;20171;-76
2022/07/28 05:44:53;;;;;;;9.48;5.30;;;;;;;17.26;66.65;92699.03;2068039;69;20179;-77
2022/07/28 05:47:18;;;;;;;9.13;5.57;;;;;;;17.56;66.94;92707.19;2071001;69;20287;-74
2022/07/28 05:49:44;;;;;;;8.27;5.53;;;;;;;17.58;67.45;92704.41;2071366;69;20153;-75
2022/07/28 05:52:10;;;;;;;8.93;5.10;;;;;;;17.69;66.76;92694.84;2071290;69;20184;-75
2022/07/28 05:54:35;;;;;;;8.32;4.80;;;;;;;17.80;64.87;92698.78;2071261;69;20500;-74
2022/07/28 05:57:01;;;;;;;6.72;5.07;;;;;;;17.93;63.34;92698.53;2067964;69;20152;-75
2022/07/28 05:59:26;;;;;;;9.20;5.85;;;;;;;18.05;63.23;92698.19;2071442;69;20199;-75
2022/07/28 06:01:54;;;;;;;7.95;5.75;;;;;;;17.98;65.07;92699.41;2071273;69;20223;-76
2022/07/28 06:04:19;;;;;;;10.00;5.68;;;;;;;17.46;66.66;92696.19;2067976;69;20148;-76
2022/07/28 06:06:45;;;;;;;8.30;5.50;;;;;;;17.49;66.17;92694.84;2071208;69;20152;-76
2022/07/28 06:09:11;;;;;;;7.38;5.78;;;;;;;17.64;64.90;92691.13;2071019;69;20239;-76
2022/07/28 06:11:37;;;;;;;8.88;5.07;;;;;;;18.06;63.90;92681.84;2071177;69;20198;-77
2022/07/28 06:14:02;;;;;;;7.65;5.20;;;;;;;18.24;64.35;92683.19;2071279;69;20616;-75
2022/07/28 06:16:28;;;;;;;8.35;4.78;;;;;;;18.46;63.92;92688.09;2071225;69;20503;-75
2022/07/28 06:18:54;;;;;;;6.93;4.82;;;;;;;18.57;62.28;92687.03;2071078;69;20235;-76
2022/07/28 06:21:23;;;;;;;5.38;4.72;;;;;;;18.56;64.42;92682.75;2071333;69;20592;-76
2022/07/28 06:23:48;;;;;;;6.22;4.50;;;;;;;18.67;60.17;92684.50;2071175;69;20136;-75
2022/07/28 06:26:14;;;;;;;7.68;4.90;;;;;;;18.54;61.54;92686.25;2071262;69;20178;-76
2022/07/28 06:28:40;;;;;;;5.65;5.00;;;;;;;18.78;61.14;92682.69;2071105;69;20156;-76
2022/07/28 06:31:05;;;;;;;8.80;5.45;;;;;;;18.57;63.30;92678.50;2065047;69;20208;-76
2022/07/28 06:33:31;;;;;;;6.55;5.25;;;;;;;18.83;62.44;92687.16;2067701;69;20176;-76
2022/07/28 06:35:57;;;;;;;7.28;5.50;;;;;;;18.97;61.26;92681.88;2071143;69;20463;-76
2022/07/28 06:38:24;;;;;;;8.15;5.28;;;;;;;19.05;60.94;92684.94;2071225;69;20179;-76
2022/07/28 06:40:49;;;;;;;9.52;5.20;;;;;;;19.04;60.06;92686.34;2071201;69;20606;-76
2022/07/28 06:43:15;;;;;;;6.47;4.82;;;;;;;19.18;60.68;92685.31;2071228;69;20503;-76
2022/07/28 06:45:43;;;;;;;5.28;4.35;;;;;;;19.00;59.25;92686.22;2067930;69;20184;-77
2022/07/28 06:48:09;;;;;;;7.40;4.90;;;;;;;19.15;58.18;92678.06;2071435;69;20171;-76
2022/07/28 06:50:38;;;;;;;6.25;4.53;;;;;;;19.07;58.96;92675.72;2068249;69;20595;-75
2022/07/28 06:53:03;;;;;;;6.70;4.65;;;;;;;18.92;58.99;92674.59;2071528;69;20227;-75
2022/07/28 06:55:29;;;;;;;9.23;5.47;;;;;;;18.79;60.23;92673.50;2071753;69;20218;-76
2022/07/28 06:57:57;;;;;;;10.48;5.22;;;;;;;18.89;60.12;92675.91;2068304;69;20147;-76
2022/07/28 07:00:23;;;;;;;5.45;4.45;;;;;;;18.95;60.23;92676.09;2071565;69;20144;-76
2022/07/28 07:02:48;;;;;;;7.20;4.60;;;;;;;18.93;60.78;92676.03;2071546;69;20162;-76
2022/07/28 07:05:14;;;;;;;9.98;4.55;;;;;;;19.07;60.92;92670.03;2071585;69;20213;-76
2022/07/28 07:07:40;;;;;;;5.18;4.43;;;;;;;19.35;59.61;92675.09;2071630;69;20152;-76
2022/07/28 07:10:06;;;;;;;6.10;4.88;;;;;;;19.54;59.41;92671.31;2071650;69;20249;-77
2022/07/28 07:12:35;;;;;;;8.13;4.45;;;;;;;19.59;58.30;92660.75;2071501;69;20220;-76
2022/07/28 07:15:02;;;;;;;5.35;4.53;;;;;;;19.62;58.44;92657.28;2071515;69;20152;-76
2022/07/28 07:17:27;;;;;;;7.53;4.30;;;;;;;19.73;57.85;92658.28;2071385;69;20136;-77
2022/07/28 07:19:53;;;;;;;6.78;4.38;;;;;;;19.86;58.04;92662.19;2071487;69;20211;-76
2022/07/28 07:22:19;;;;;;;8.48;4.65;;;;;;;19.91;59.15;92649.47;2068221;69;20565;-76
2022/07/28 07:24:45;;;;;;;5.85;4.50;;;;;;;20.05;58.66;92653.41;2068090;69;20148;-77
2022/07/28 07:27:11;;;;;;;7.35;4.60;;;;;;;20.16;57.48;92647.91;2071606;69;20197;-76
2022/07/28 07:29:36;;;;;;;6.05;4.22;;;;;;;20.19;56.46;92643.72;2071520;69;20180;-76
2022/07/28 07:32:02;;;;;;;8.57;4.50;;;;;;;20.35;56.47;92644.13;2071498;69;20227;-76
2022/07/28 07:34:27;;;;;;;5.28;4.68;;;;;;;20.40;57.57;92644.94;2067890;69;20148;-75
2022/07/28 07:36:53;;;;;;;6.50;4.95;;;;;;;20.21;58.57;92640.94;2071413;69;20136;-76
2022/07/28 07:39:19;;;;;;;7.30;4.10;;;;;;;20.31;55.69;92630.44;2071469;69;20142;-77
2022/07/28 07:41:44;;;;;;;5.28;4.35;;;;;;;20.71;57.30;92641.41;2068141;69;20191;-77
2022/07/28 07:44:10;;;;;;;6.57;4.45;;;;;;;20.90;58.13;92621.78;2071533;69;20219;-78
2022/07/28 07:46:37;;;;;;;6.45;4.57;;;;;;;21.16;58.45;92627.31;2070044;69;20147;-77
2022/07/28 07:49:02;;;;;;;6.35;4.35;;;;;;;21.39;56.99;92629.22;2070320;69;20159;-77
2022/07/28 07:51:28;;;;;;;9.07;4.60;;;;;;;21.54;55.71;92622.38;2069654;69;20152;-76
2022/07/28 07:53:54;;;;;;;4.40;3.97;;;;;;;21.92;55.99;92630.22;2075535;69;20154;-77
2022/07/28 07:56:19;;;;;;;5.80;4.18;;;;;;;22.28;55.01;92623.66;2076167;69;20144;-77
2022/07/28 07:58:45;;;;;;;4.15;3.70;;;;;;;22.69;52.23;92624.28;2073005;69;20151;-73
2022/07/28 08:01:12;;;;;;;6.10;3.55;;;;;;;22.95;52.63;92621.78;2076693;69;20239;-76
2022/07/28 08:03:37;;;;;;;4.97;3.90;;;;;;;23.37;50.64;92626.66;2076337;69;20206;-80
2022/07/28 08:06:03;;;;;;;5.85;3.70;;;;;;;23.92;48.66;92617.94;2072528;69;20468;-80
2022/07/28 08:08:29;;;;;;;8.43;3.95;;;;;;;23.74;46.81;92618.47;2071743;69;20582;-80
2022/07/28 08:10:54;;;;;;;5.43;4.00;;;;;;;23.81;47.51;92614.22;2072638;69;20236;-78
2022/07/28 08:13:21;;;;;;;7.88;3.80;;;;;;;24.32;47.96;92614.69;2072109;69;20551;-79
2022/07/28 08:15:47;;;;;;;6.18;3.83;;;;;;;24.56;47.31;92605.56;2072623;69;20156;-79
2022/07/28 08:18:13;;;;;;;5.22;3.45;;;;;;;25.02;46.95;92605.13;2072402;69;20155;-76
2022/07/28 08:20:40;;;;;;;5.47;3.45;;;;;;;24.97;46.31;92611.56;2068485;69;20163;-75
2022/07/28 08:23:06;;;;;;;4.10;3.30;;;;;;;25.28;46.00;92598.06;2071510;69;20493;-77
2022/07/28 08:25:35;;;;;;;3.78;3.00;;;;;;;25.97;45.12;92597.56;2071413;69;20136;-78
2022/07/28 08:28:01;;;;;;;5.97;3.33;;;;;;;26.13;44.11;92599.78;2071497;69;20167;-74
2022/07/28 08:30:26;;;;;;;4.07;2.95;;;;;;;26.31;45.14;92591.84;2071775;69;20168;-76
2022/07/28 08:32:52;;;;;;;5.03;3.45;;;;;;;26.49;43.71;92590.44;2071308;69;20136;-78
2022/07/28 08:35:17;;;;;;;4.05;3.33;;;;;;;26.42;42.54;92583.91;2068121;69;20140;-76
2022/07/28 08:37:43;;;;;;;3.95;3.20;;;;;;;26.50;42.12;92583.94;2068265;69;20149;-77
2022/07/28 08:40:16;;;;;;;4.53;3.40;;;;;;;26.85;41.18;92586.78;2068377;69;20183;-77
2022/07/28 08:43:19;;;;;;;4.32;3.50;;;;;;;26.87;41.56;92589.66;2071656;69;20155;-77
2022/07/28 08:45:47;;;;;;;5.97;3.53;;;;;;;26.96;41.06;92579.53;2071676;69;20234;-76
2022/07/28 08:48:15;;;;;;;5.50;3.40;;;;;;;27.29;42.89;92576.56;2071519;69;20665;-75
2022/07/28 08:50:51;;;;;;;4.63;3.38;;;;;;;27.92;40.57;92581.34;2071645;69;20203;-78
2022/07/28 08:53:19;;;;;;;5.00;3.28;;;;;;;28.13;40.96;92585.53;2068416;69;20305;-78
2022/07/28 08:55:47;;;;;;;5.45;3.40;;;;;;;28.19;39.28;92579.00;2071542;69;20201;-77
2022/07/28 08:58:15;;;;;;;6.07;3.35;;;;;;;27.70;39.64;92576.38;2071666;69;20600;-77
2022/07/28 09:00:41;;;;;;;4.75;3.05;;;;;;;28.40;38.21;92576.69;2068186;69;20147;-78
2022/07/28 09:03:09;;;;;;;4.13;3.47;;;;;;;28.29;38.46;92570.97;2071250;69;20599;-75
2022/07/28 09:05:36;;;;;;;4.38;3.17;;;;;;;28.50;39.28;92571.56;2071353;69;20132;-77
2022/07/28 09:08:02;;;;;;;5.05;3.50;;;;;;;28.10;38.81;92578.34;2067974;69;20453;-78
2022/07/28 09:10:28;;;;;;;3.45;3.00;;;;;;;28.57;38.02;92572.22;2068030;69;20140;-76
2022/07/28 09:12:54;;;;;;;5.22;3.33;;;;;;;29.96;37.08;92571.41;2071320;69;20143;-73
2022/07/28 09:15:20;;;;;;;4.10;3.17;;;;;;;29.15;38.86;92576.03;2071289;69;20579;-77
2022/07/28 09:17:45;;;;;;;5.65;3.30;;;;;;;28.61;37.29;92580.88;2071281;69;20231;-77
2022/07/28 09:20:12;;;;;;;4.50;3.40;;;;;;;28.57;37.67;92567.16;2067980;69;20148;-77
2022/07/28 09:23:01;;;;;;;4.38;3.40;;;;;;;28.44;38.40;92565.09;2071485;69;20144;-78
2022/07/28 09:25:27;;;;;;;3.20;2.80;;;;;;;29.22;38.87;92554.19;2071279;69;20172;-79
2022/07/28 09:27:54;;;;;;;5.13;3.00;;;;;;;29.19;37.82;92564.41;2071400;69;20275;-77
2022/07/28 09:30:31;;;;;;;5.45;2.88;;;;;;;28.70;38.03;92556.19;2071499;69;20152;-79
2022/07/28 09:33:23;;;;;;;6.57;3.22;;;;;;;29.05;35.99;92556.59;2071213;69;20164;-78
2022/07/28 09:35:56;;;;;;;3.40;3.08;;;;;;;29.12;36.83;92552.13;2071260;69;20485;-79
2022/07/28 09:38:24;;;;;;;4.47;3.20;;;;;;;29.31;34.59;92549.75;2067938;69;20238;-78
2022/07/28 09:41:00;;;;;;;3.55;2.92;;;;;;;29.67;35.90;92544.25;2071377;69;20603;-78
2022/07/28 09:43:35;;;;;;;7.78;3.22;;;;;;;29.66;35.96;92540.66;2071280;69;20156;-80
2022/07/28 09:46:24;;;;;;;3.72;3.10;;;;;;;30.07;36.49;92540.78;2071434;69;20773;-79
2022/07/28 09:48:59;;;;;;;5.28;3.22;;;;;;;30.61;35.06;92544.31;2071159;69;20140;-78
2022/07/28 09:51:29;;;;;;;6.70;3.30;;;;;;;30.60;33.82;92542.88;2071232;69;20147;-80
2022/07/28 09:54:09;;;;;;;7.18;3.22;;;;;;;31.33;34.22;92528.50;2071276;69;20144;-79
2022/07/28 09:56:37;;;;;;;3.92;3.10;;;;;;;31.02;34.57;92528.34;2067982;69;20148;-80
2022/07/28 09:59:03;;;;;;;4.55;3.10;;;;;;;31.24;33.09;92524.31;2071277;69;20151;-78
2022/07/28 10:01:30;;;;;;;3.95;2.80;;;;;;;31.05;33.97;92524.66;2067970;69;20141;-77
2022/07/28 10:03:57;;;;;;;3.03;2.70;;;;;;;31.30;34.44;92518.41;2071162;69;20144;-81
2022/07/28 10:06:31;;;;;;;3.67;2.92;;;;;;;31.76;32.55;92518.91;2071365;69;20148;-78
2022/07/28 10:09:02;;;;;;;2.97;2.67;;;;;;;32.53;32.00;92516.44;2071076;69;20152;-77
2022/07/28 10:11:29;;;;;;;3.97;2.90;;;;;;;32.24;32.69;92510.56;2067719;69;20144;-77
2022/07/28 10:13:54;;;;;;;2.65;2.45;;;;;;;32.00;31.42;92511.84;2071183;69;20144;-77
2022/07/28 10:16:22;;;;;;;6.95;3.00;;;;;;;33.19;31.20;92513.28;2071256;69;20163;-78
2022/07/28 10:18:48;;;;;;;5.30;2.47;;;;;;;33.20;31.08;92511.09;2067679;69;20166;-76
2022/07/28 10:21:15;;;;;;;5.47;2.60;;;;;;;33.51;29.21;92508.06;2070972;69;20156;-78
2022/07/28 10:23:54;;;;;;;5.53;2.58;;;;;;;33.15;30.43;92501.72;2071116;69;20617;-79
2022/07/28 10:26:24;;;;;;;3.58;2.63;;;;;;;33.77;30.04;92506.53;2071138;69;20189;-78
2022/07/28 10:28:52;;;;;;;4.25;2.53;;;;;;;33.82;28.65;92505.66;2070551;69;20152;-76
2022/07/28 10:31:32;;;;;;;7.28;2.40;;;;;;;33.65;28.19;92501.81;2070719;69;20247;-76
2022/07/28 10:34:00;;;;;;;3.72;2.40;;;;;;;34.90;30.06;92498.63;2067378;69;20159;-77
2022/07/28 10:36:26;;;;;;;6.07;2.63;;;;;;;35.12;28.17;92494.22;2071083;69;20136;-77
2022/07/28 10:39:11;;;;;;;4.60;2.10;;;;;;;35.82;27.89;92501.22;2067519;69;20187;-77
2022/07/28 10:41:40;;;;;;;3.45;2.63;;;;;;;35.90;27.74;92489.19;2070902;69;20278;-77
2022/07/28 10:44:12;;;;;;;3.53;2.17;;;;;;;35.97;26.94;92487.50;2067617;69;20604;-77
2022/07/28 10:46:42;;;;;;;2.72;2.10;;;;;;;35.44;26.93;92483.56;2070824;69;20637;-76
2022/07/28 10:49:09;;;;;;;3.45;2.20;;;;;;;36.02;25.92;92488.75;2070957;69;20462;-77
2022/07/28 10:51:39;;;;;;;4.38;2.10;;;;;;;37.10;26.08;92489.53;2067546;69;20148;-76
2022/07/28 10:54:12;;;;;;;2.95;2.05;;;;;;;37.59;25.20;92487.41;2070741;69;20172;-77
2022/07/28 10:56:48;;;;;;;3.63;2.20;;;;;;;38.73;24.72;92481.38;2067570;69;20247;-76
2022/07/28 10:59:39;;;;;;;3.58;2.20;;;;;;;39.34;22.92;92481.97;2070799;69;20131;-76
2022/07/28 11:02:05;;;;;;;3.50;2.13;;;;;;;39.68;24.11;92487.59;2067544;69;20144;-77
2022/07/28 11:04:39;;;;;;;3.67;1.90;;;;;;;40.08;21.04;92478.81;2071200;69;20155;-76
2022/07/28 11:07:12;;;;;;;4.38;2.13;;;;;;;40.64;20.61;92489.00;2070730;69;20821;-77
2022/07/28 11:09:38;;;;;;;2.10;1.67;;;;;;;42.61;18.55;92477.84;2070788;69;20630;-78
2022/07/28 11:12:04;;;;;;;3.20;1.85;;;;;;;45.89;17.01;92492.53;2070852;69;20148;-76
2022/07/28 11:14:32;;;;;;;5.55;1.88;;;;;;;46.83;16.56;92485.81;2070661;69;20152;-77
2022/07/28 11:17:04;;;;;;;6.10;2.25;;;;;;;47.80;15.96;92482.25;2070769;69;20148;-77
2022/07/28 11:19:49;;;;;;;4.15;1.50;;;;;;;47.75;15.36;92487.16;2070885;69;20168;-76
2022/07/28 11:24:56;;;;;;;2.50;1.55;;;;;;;47.87;15.16;92479.41;2070977;69;20147;-77
2022/07/28 11:28:03;;;;;;;2.35;1.38;;;;;;;47.86;13.59;92469.78;2070638;69;20139;-77
2022/07/28 11:32:54;;;;;;;3.17;1.70;;;;;;;50.57;13.05;92465.34;2053317;70;20166;-79
2022/07/28 11:35:25;;;;;;;3.25;1.60;;;;;;;52.00;13.13;92456.44;2053830;70;20213;-80
2022/07/28 11:38:02;;;;;;;5.55;1.92;;;;;;;51.22;13.11;92457.56;2053710;70;20534;-78
2022/07/28 11:40:41;;;;;;;6.95;2.13;;;;;;;53.39;11.84;92459.88;2053542;70;20229;-78
2022/07/28 11:43:22;;;;;;;2.10;1.50;;;;;;;53.12;11.33;92453.69;2054178;69;20145;-78
2022/07/28 11:45:51;;;;;;;6.72;1.65;;;;;;;53.06;11.25;92452.06;2053929;70;20204;-79